Flight Track Log - Related Links

Times and Time Zones

All times are in EDT time to prevent confusion due to time zone crossing. See the ASA525 flight status page for this flight to view local times or setup timezone preferences in your user account.


Time Position Orientation Groundspeed Altitude Reporting Facility
EDT Latitude Longitude Course Direction KTS MPH feet Rate Location/Type
Mon 02:08:15 PM 34.1594 -118.4306 330° Northwest 224 258 5,200  Level Los Angeles Center
Mon 02:09:17 PM 34.2250 -118.4767 330° Northwest 272 313 7,800 2,806 Climbing Los Angeles Center
Mon 02:10:19 PM 34.2964 -118.5222 332° Northwest 288 331 11,000 2,645 Climbing Los Angeles Center
Mon 02:12:00 PM 34.4902 -118.5683 338° Northwest  Level Estimated
Mon 02:12:23 PM 34.4653 -118.6339 338° Northwest 369 425 16,000  Level Los Angeles Center
Mon 02:14:00 PM 34.5941 -118.7471 338° Northwest  Level FlightAware Approximate
Mon 02:15:29 PM 34.7758 -118.8436 338° Northwest 406 467 25,600  Level Los Angeles Center
Mon 02:16:32 PM 34.8950 -118.8978 340° North 431 496 27,700 1,948 Climbing Los Angeles Center
Mon 02:18:03 PM 35.0750 -118.9661 343° North 449 517 30,600 1,935 Climbing Oakland Center
Mon 02:18:36 PM 35.1475 -118.9933 343° North 456 525 31,700 1,200 Climbing Los Angeles Center
Mon 02:19:38 PM 35.2706 -119.0419 342° North 466 536 32,500 1,258 Climbing Los Angeles Center
Mon 02:20:40 PM 35.3925 -119.0894 342° North 463 533 34,300 1,302 Climbing Los Angeles Center
Mon 02:23:10 PM 35.7086 -119.2128 342° North 460 529 37,100 1,132 Climbing Oakland Center
Mon 02:24:12 PM 35.8331 -119.2625 342° North 469 540 38,300 1,171 Climbing Oakland Center
Mon 02:25:13 PM 35.9542 -119.3114 342° North 464 534 39,500 780 Climbing Oakland Center
Mon 02:26:15 PM 36.0772 -119.3586 343° North 466 536 39,900 244 Climbing Oakland Center
Mon 02:27:16 PM 36.2000 -119.4072 342° North 466 536 40,000 37 Climbing Oakland Center
Mon 02:28:57 PM 36.4192 -119.4986 341° North 466 536 40,000  Level Los Angeles Center
Mon 02:29:19 PM 36.4692 -119.5153 345° North 466 536 40,000  Level Oakland Center
Mon 02:31:22 PM 36.7136 -119.6158 342° North 460 529 40,000  Level Oakland Center
Mon 02:32:24 PM 36.8342 -119.6631 343° North 464 534 40,000  Level Oakland Center
Mon 02:33:25 PM 36.9572 -119.7150 341° North 465 535 40,000  Level Oakland Center
Mon 02:35:00 PM 37.1335 -119.7884 342° North  Level FlightAware Approximate
Mon 02:37:31 PM 37.4492 -119.9150 350° North 472 543 40,000  Level Oakland Center
Mon 02:38:32 PM 37.5964 -119.9747 342° North 472 543 40,000  Level Oakland Center
Mon 02:39:34 PM 37.7208 -120.0239 343° North 469 540 40,000  Level Oakland Center
Mon 02:41:00 PM 37.8786 -120.0978 340° North  Level FlightAware Approximate
Mon 02:42:00 PM 37.9147 -120.1070 350° North  Level FlightAware Approximate
Mon 02:43:00 PM 38.0303 -120.1327 350° North  Level FlightAware Approximate
Mon 02:43:39 PM 38.2178 -120.1997 345° North 465 535 40,000  Level Oakland Center
Mon 02:44:41 PM 38.3450 -120.2383 347° North 469 540 40,000  Level Oakland Center
Mon 02:45:42 PM 38.4717 -120.2772 346° North 471 542 40,000  Level Oakland Center
Mon 02:46:44 PM 38.6222 -120.3244 346° North 467 537 40,000  Level Oakland Center
Mon 02:48:00 PM 38.7669 -120.3682 347° North  Level FlightAware Approximate
Mon 02:48:00 PM 38.6783 -120.3350 345° North  Level FlightAware Approximate
Mon 02:48:46 PM 38.8750 -120.4036 347° North 471 542 40,000  Level Oakland Center
Mon 02:49:00 PM 38.7915 -120.3745 345° North  Level FlightAware Approximate
Mon 02:49:48 PM 39.0019 -120.4439 346° North 472 543 40,000  Level Oakland Center
Mon 02:50:49 PM 39.1300 -120.4808 347° North 473 544 40,000  Level Oakland Center
Mon 02:51:51 PM 39.2581 -120.5167 348° North 473 544 40,000  Level Oakland Center
Mon 02:53:53 PM 39.5342 -120.5967 347° North 462 532 40,000  Level Oakland Center
Mon 02:54:55 PM 39.6592 -120.6331 347° North 461 531 40,000  Level Oakland Center
Mon 02:55:56 PM 39.7831 -120.6672 348° North 458 527 40,000  Level Oakland Center
Mon 02:59:00 PM 40.1739 -120.7822 347° North 467 537 40,000  Level Oakland Center
Mon 03:00:02 PM 40.3014 -120.8197 347° North 473 544 40,000  Level Oakland Center
Mon 03:02:00 PM 40.4795 -120.9032 340° North  Level FlightAware Approximate
Mon 03:02:27 PM 40.6092 -120.9133 340° North 468 539 40,000  Level Seattle Center
Mon 03:03:06 PM 40.6911 -120.9392 347° North 484 557 40,000  Level Oakland Center
Mon 03:04:07 PM 40.8167 -120.9764 347° North 469 540 40,000  Level Oakland Center
Mon 03:05:09 PM 40.9417 -121.0150 347° North 485 558 40,000  Level Oakland Center
Mon 03:06:10 PM 41.0644 -121.0517 347° North 479 551 40,000  Level Oakland Center
Mon 03:06:31 PM 41.1147 -121.0661 348° North 456 525 40,000  Level Seattle Center
Mon 03:08:13 PM 41.3106 -121.1281 347° North 453 521 40,000  Level Oakland Center
Mon 03:09:14 PM 41.4331 -121.1667 347° North 453 521 40,000  Level Oakland Center
Mon 03:09:34 PM 41.4822 -121.1803 348° North 454 522 40,000  Level Seattle Center
Mon 03:10:35 PM 41.6061 -121.2197 347° North 456 525 40,000  Level Seattle Center
Mon 03:11:36 PM 41.7306 -121.2575 347° North 460 529 40,000  Level Seattle Center
Mon 03:12:38 PM 41.8556 -121.2972 347° North 462 532 40,000  Level Seattle Center
Mon 03:13:39 PM 42.0044 -121.3436 347° North 460 529 40,000  Level Seattle Center
Mon 03:16:00 PM 42.1824 -121.4538 335° Northwest  Level FlightAware Approximate
Mon 03:16:42 PM 42.3817 -121.4633 335° Northwest 471 542 40,000  Level Seattle Center
Mon 03:17:43 PM 42.5050 -121.5017 347° North 463 533 40,000  Level Seattle Center
Mon 03:18:44 PM 42.6306 -121.5400 347° North 465 535 40,000  Level Seattle Center
Mon 03:20:00 PM 42.7759 -121.5921 345° North  Level FlightAware Approximate
Mon 03:21:47 PM 43.0025 -121.6608 345° North 460 529 40,000  Level Seattle Center
Mon 03:22:48 PM 43.1281 -121.7028 346° North 465 535 40,000  Level Seattle Center
Mon 03:24:00 PM 43.2650 -121.7561 344° North  Level FlightAware Approximate
Mon 03:24:51 PM 43.4036 -121.7933 347° North 463 533 40,000  Level Seattle Center
Mon 03:26:53 PM 43.6658 -121.8756 347° North 463 533 40,000  Level Seattle Center
Mon 03:27:00 PM 43.5787 -121.8846 345° North  Level FlightAware Approximate
Mon 03:28:00 PM 43.7979 -121.8898 356° North  Level Estimated
Mon 03:29:56 PM 44.0389 -122.0011 356° North 460 529 40,000  Level Seattle Center
Mon 03:31:00 PM 44.0690 -122.0503 347° North  Level FlightAware Approximate
Mon 03:31:58 PM 44.2858 -122.0839 347° North 456 525 40,000  Level Seattle Center
Mon 03:32:59 PM 44.4017 -122.1228 347° North 439 505 40,000  Level Seattle Center
Mon 03:34:00 PM 44.5181 -122.1619 347° North 434 499 40,000  Level Seattle Center
Mon 03:35:00 PM 44.6260 -121.9808 356° North  Level Estimated
Mon 03:35:01 PM 44.6344 -122.2033 346° North 432 497 40,000  Level Seattle Center
Mon 03:36:02 PM 44.7503 -122.2428 346° North 431 496 40,000  Level Seattle Center
Mon 03:37:03 PM 44.8728 -122.2847 346° North 429 494 40,000  Level Seattle Center
Mon 03:39:05 PM 45.1019 -122.3650 346° North 426 490 40,000  Level Seattle Center
Mon 03:40:06 PM 45.2144 -122.4033 347° North 419 482 40,000  Level Seattle Center
Mon 03:41:07 PM 45.3519 -122.4511 346° North 426 490 40,000 -590 Level Seattle Center
Mon 03:43:09 PM 45.5817 -122.5322 346° North 427 491 38,200 -1,246 Descending Seattle Center
Mon 03:44:10 PM 45.6972 -122.5744 346° North 428 493 36,200 -1,820 Descending Seattle Center
Mon 03:45:11 PM 45.8147 -122.6092 348° North 433 498 34,500 -2,410 Descending Seattle Center
Mon 03:46:12 PM 45.9336 -122.6356 351° North 436 502 31,300 -2,754 Descending Seattle Center
Mon 03:47:13 PM 46.0531 -122.6694 349° North 438 504 28,900 -2,393 Descending Seattle Center
Mon 03:49:15 PM 46.2867 -122.7164 352° North 406 467 24,000 -2,328 Descending Seattle Center
Mon 03:50:16 PM 46.3922 -122.7217 358° North 387 445 21,800 -2,164 Descending Seattle Center
Mon 03:51:17 PM 46.4950 -122.7181 North 373 429 19,600 -2,164 Descending Seattle Center
Mon 03:52:18 PM 46.5942 -122.7128 North 361 415 17,400 -2,066 Descending Seattle Center
Mon 03:53:19 PM 46.6892 -122.7083 North 347 399 15,400 -1,918 Descending Seattle Center
Mon 03:55:00 PM 46.8723 -122.6259 42° Northeast  Level FlightAware Approximate
Mon 03:56:22 PM 46.9358 -122.5419 42° Northeast 315 362 9,600  Level Seattle Center
Mon 03:57:20 PM 46.9947 -122.4667 41° Northeast 289 333 8,200 -1,412 Descending Seattle Center
Mon 03:58:21 PM 47.0606 -122.4017 34° Northeast 279 321 6,800 -1,012 Descending Seattle Center
Mon 04:00:00 PM 47.2476 -122.3587 10° North  Level Estimated
Mon 04:01:29 PM 47.2622 -122.3211 132° Southeast 225 259 4,000  Level Seattle Center
Mon 04:02:18 PM 47.3044 -122.3203 North 205 236 3,300 -1,091 Descending Seattle Center
Mon 04:03:19 PM 47.3617 -122.3181 North 179 206 2,000 -1,131 Descending Seattle Center
Mon 04:04:20 PM 47.4039 -122.3178 360° North 151 174 1,000 -767 Descending Seattle Center
Mon 04:05:32 PM 47.4464 -122.3183 359° North 141 162 300 -583 Descending Seattle Center
Mon 04:07:00 PM 47.4333 -122.3000 132° Southeast  Level FlightAware Approximate
Mon 04:07:00 PM 47.4499 -122.3118 132° Southeast  Level Estimated
Mon 04:14:00 PM 47.4499 -122.3118 132° Southeast  Level Estimated

Login

Don't have an account? Register now (free) for customized features, flight alerts, and more!